createdAt,value
2022-10-12T00:02:09.816Z,8.90
2022-10-12T00:04:36.558Z,7.50
2022-10-12T00:07:03.352Z,7.50
2022-10-12T00:09:30.119Z,7.50
2022-10-12T00:11:58.271Z,7.50
2022-10-12T00:14:24.994Z,7.30
2022-10-12T00:16:51.845Z,7.00
2022-10-12T00:19:18.599Z,6.90
2022-10-12T00:21:45.366Z,7.10
2022-10-12T00:24:12.103Z,7.10
2022-10-12T00:26:38.962Z,7.30
2022-10-12T00:29:05.789Z,7.30
2022-10-12T00:31:32.620Z,7.30
2022-10-12T00:34:01.807Z,7.40
2022-10-12T00:36:32.515Z,8.30
2022-10-12T00:38:59.832Z,7.40
2022-10-12T00:41:31.015Z,7.40
2022-10-12T00:43:58.796Z,7.30
2022-10-12T00:46:28.434Z,7.40
2022-10-12T00:49:10.122Z,7.40
2022-10-12T00:51:38.921Z,7.40
2022-10-12T00:54:11.730Z,7.50
2022-10-12T00:56:42.059Z,7.60
2022-10-12T00:59:14.754Z,7.50
2022-10-12T01:01:41.835Z,7.40
2022-10-12T01:04:08.759Z,7.60
2022-10-12T01:06:36.143Z,7.60
2022-10-12T01:09:04.072Z,7.50
2022-10-12T01:11:31.333Z,7.50
2022-10-12T01:13:58.518Z,7.50
2022-10-12T01:16:46.930Z,7.60
2022-10-12T01:19:56.391Z,7.60
2022-10-12T01:22:25.294Z,7.40
2022-10-12T01:24:54.290Z,7.20
2022-10-12T01:27:40.854Z,7.30
2022-10-12T01:30:24.754Z,7.40
2022-10-12T01:33:25.340Z,7.40
2022-10-12T01:36:03.861Z,7.50
2022-10-12T01:38:40.076Z,7.60
2022-10-12T01:41:26.928Z,7.60
2022-10-12T01:43:53.660Z,7.70
2022-10-12T01:46:20.308Z,7.60
2022-10-12T01:48:49.606Z,7.40
2022-10-12T01:51:29.148Z,7.40
2022-10-12T01:54:10.589Z,7.40
2022-10-12T01:57:03.730Z,7.40
2022-10-12T01:59:45.012Z,7.40
2022-10-12T02:02:34.837Z,7.20
2022-10-12T02:05:26.847Z,7.10
2022-10-12T02:08:06.077Z,6.90
2022-10-12T02:10:43.070Z,6.60
2022-10-12T02:13:14.391Z,6.60
2022-10-12T02:15:43.160Z,6.60
2022-10-12T02:18:14.603Z,6.70
2022-10-12T02:20:42.850Z,6.60
2022-10-12T02:23:11.163Z,6.70
2022-10-12T02:25:39.517Z,6.80
2022-10-12T02:28:11.519Z,6.80
2022-10-12T02:30:45.378Z,6.90
2022-10-12T02:33:35.284Z,6.70
2022-10-12T02:36:09.180Z,6.80
2022-10-12T02:38:41.265Z,6.70
2022-10-12T02:41:25.079Z,6.80
2022-10-12T02:43:59.709Z,6.80
2022-10-12T02:46:27.247Z,6.70
2022-10-12T02:48:55.832Z,6.60
2022-10-12T02:51:23.751Z,6.60
2022-10-12T02:53:50.850Z,6.50
2022-10-12T02:56:17.655Z,6.40
2022-10-12T02:58:46.324Z,6.20
2022-10-12T03:01:13.658Z,6.30
2022-10-12T03:03:41.353Z,6.40
2022-10-12T03:06:08.367Z,6.40
2022-10-12T03:08:35.444Z,6.30
2022-10-12T03:11:08.020Z,6.20
2022-10-12T03:13:34.763Z,6.00
2022-10-12T03:16:04.048Z,5.90
2022-10-12T03:18:31.397Z,6.00
2022-10-12T03:20:58.471Z,5.90
2022-10-12T03:23:25.236Z,5.70
2022-10-12T03:25:53.352Z,5.80
2022-10-12T03:28:20.430Z,5.90
2022-10-12T03:30:47.456Z,5.90
2022-10-12T03:33:14.190Z,6.00
2022-10-12T03:35:44.783Z,6.00
2022-10-12T03:38:12.579Z,5.90
2022-10-12T03:40:39.617Z,5.90
2022-10-12T03:43:07.058Z,5.60
2022-10-12T03:45:33.868Z,5.00
2022-10-12T03:48:04.668Z,4.80
2022-10-12T03:50:34.757Z,4.90
2022-10-12T03:53:02.810Z,5.40
2022-10-12T03:55:29.637Z,5.80
2022-10-12T03:57:57.774Z,6.10
2022-10-12T04:00:25.995Z,6.60
2022-10-12T04:02:52.797Z,6.50
2022-10-12T04:05:19.489Z,6.60
2022-10-12T04:07:46.342Z,6.40
2022-10-12T04:10:13.063Z,6.50
2022-10-12T04:12:39.849Z,6.70
2022-10-12T04:15:07.112Z,6.70
2022-10-12T04:17:33.929Z,6.90
2022-10-12T04:20:00.680Z,7.30
2022-10-12T04:22:27.567Z,7.40
2022-10-12T04:24:54.308Z,7.40
2022-10-12T04:27:21.230Z,8.40
2022-10-12T04:29:48.724Z,7.30
2022-10-12T04:32:15.478Z,7.10
2022-10-12T04:34:42.207Z,7.00
2022-10-12T04:37:08.912Z,7.20
2022-10-12T04:39:37.970Z,7.10
2022-10-12T04:42:06.874Z,7.00
2022-10-12T04:44:34.003Z,6.10
2022-10-12T04:47:02.225Z,7.20
2022-10-12T04:49:29.123Z,7.20
2022-10-12T04:51:55.919Z,7.30
2022-10-12T04:54:22.670Z,7.30
2022-10-12T04:56:49.495Z,6.20
2022-10-12T04:59:16.414Z,7.10
2022-10-12T05:01:43.285Z,7.10
2022-10-12T05:04:10.193Z,7.40
2022-10-12T05:06:36.958Z,7.70
2022-10-12T05:09:03.947Z,8.40
2022-10-12T05:11:31.959Z,7.80
2022-10-12T05:13:58.824Z,7.70
2022-10-12T05:16:25.887Z,7.60
2022-10-12T05:18:52.669Z,7.50
2022-10-12T05:21:19.359Z,7.70
2022-10-12T05:23:51.448Z,7.60
2022-10-12T05:26:18.623Z,7.80
2022-10-12T05:28:45.653Z,7.80
2022-10-12T05:31:12.501Z,7.70
2022-10-12T05:33:39.218Z,7.60
2022-10-12T05:36:06.496Z,7.50
2022-10-12T05:38:33.330Z,7.50
2022-10-12T05:41:00.989Z,7.60
2022-10-12T05:43:28.590Z,7.60
2022-10-12T05:45:55.457Z,7.70
2022-10-12T05:48:22.238Z,7.70
2022-10-12T05:50:51.701Z,7.70
2022-10-12T05:53:18.415Z,7.90
2022-10-12T05:55:59.498Z,8.00
2022-10-12T05:58:28.452Z,7.90
2022-10-12T06:00:55.600Z,7.70
2022-10-12T06:03:25.910Z,7.70
2022-10-12T06:05:53.408Z,7.80
2022-10-12T06:08:20.224Z,7.90
2022-10-12T06:10:49.907Z,8.00
2022-10-12T06:13:18.000Z,8.00
2022-10-12T06:15:46.185Z,8.00
2022-10-12T06:18:13.955Z,7.90
2022-10-12T06:20:40.776Z,7.80
2022-10-12T06:23:07.500Z,7.50
2022-10-12T06:25:34.245Z,7.50
2022-10-12T06:28:01.412Z,7.30
2022-10-12T06:30:28.116Z,7.20
2022-10-12T06:32:54.891Z,7.20
2022-10-12T06:35:22.069Z,7.40
2022-10-12T06:37:50.669Z,7.60
2022-10-12T06:40:19.237Z,7.80
2022-10-12T06:42:46.545Z,7.90
2022-10-12T06:45:13.284Z,8.00
2022-10-12T06:47:40.077Z,7.90
2022-10-12T06:50:08.084Z,8.30
2022-10-12T06:52:35.461Z,8.50
2022-10-12T06:55:03.041Z,9.40
2022-10-12T06:57:30.130Z,8.80
2022-10-12T06:59:57.171Z,8.80
2022-10-12T07:02:23.890Z,8.90
2022-10-12T07:04:54.127Z,8.90
2022-10-12T07:07:20.932Z,8.90
2022-10-12T07:09:47.698Z,9.20
2022-10-12T07:12:15.450Z,9.10
2022-10-12T07:14:42.152Z,9.20
2022-10-12T07:17:09.530Z,9.40
2022-10-12T07:19:36.275Z,9.50
2022-10-12T07:22:03.428Z,9.60
2022-10-12T07:24:36.341Z,9.80
2022-10-12T07:27:09.905Z,9.70
2022-10-12T07:29:38.137Z,9.90
2022-10-12T07:32:06.585Z,9.80
2022-10-12T07:34:33.713Z,9.70
2022-10-12T07:37:00.866Z,9.50
2022-10-12T07:39:27.891Z,9.40
2022-10-12T07:41:54.964Z,9.50
2022-10-12T07:44:22.746Z,9.50
2022-10-12T07:46:49.832Z,9.40
2022-10-12T07:49:16.996Z,9.50
2022-10-12T07:51:44.407Z,9.70
2022-10-12T07:54:11.135Z,9.80
2022-10-12T07:56:38.835Z,9.90
2022-10-12T07:59:05.617Z,10.00
2022-10-12T08:01:33.163Z,10.20
2022-10-12T08:04:01.984Z,10.40
2022-10-12T08:06:31.614Z,10.50
2022-10-12T08:08:59.673Z,10.70
2022-10-12T08:11:26.750Z,12.30
2022-10-12T08:13:53.628Z,10.90
2022-10-12T08:16:22.013Z,10.80
2022-10-12T08:18:48.923Z,11.10
2022-10-12T08:21:16.940Z,11.30
2022-10-12T08:23:46.667Z,11.60
2022-10-12T08:26:14.690Z,11.90
2022-10-12T08:28:42.047Z,12.10
2022-10-12T08:31:15.115Z,12.40
2022-10-12T08:33:41.920Z,12.60
2022-10-12T08:36:10.445Z,12.70
2022-10-12T08:38:40.725Z,12.80
2022-10-12T08:41:36.428Z,13.00
2022-10-12T08:44:08.423Z,13.10
2022-10-12T08:46:35.363Z,13.20
2022-10-12T08:49:18.857Z,13.30
2022-10-12T08:52:10.054Z,13.40
2022-10-12T08:54:42.064Z,13.40
2022-10-12T08:57:16.553Z,13.20
2022-10-12T08:59:44.304Z,13.30
2022-10-12T09:02:37.161Z,13.50
2022-10-12T09:05:13.154Z,13.60
2022-10-12T09:08:06.138Z,13.70
2022-10-12T09:10:32.834Z,13.60
2022-10-12T09:13:09.815Z,13.60
2022-10-12T09:15:53.753Z,13.90
2022-10-12T09:18:43.512Z,14.20
2022-10-12T09:21:16.910Z,14.30
2022-10-12T09:23:44.411Z,14.30
2022-10-12T09:26:17.653Z,14.50
2022-10-12T09:28:58.141Z,14.60
2022-10-12T09:31:48.361Z,14.90
2022-10-12T09:34:19.032Z,15.00
2022-10-12T09:36:46.587Z,14.90
2022-10-12T09:39:18.704Z,15.10
2022-10-12T09:41:47.451Z,15.00
2022-10-12T09:44:29.276Z,14.90
2022-10-12T09:47:01.191Z,15.10
2022-10-12T09:49:41.225Z,14.90
2022-10-12T09:52:08.922Z,15.10
2022-10-12T09:54:35.838Z,15.10
2022-10-12T09:57:03.179Z,15.50
2022-10-12T09:59:36.532Z,15.60
2022-10-12T10:02:19.436Z,15.50
2022-10-12T10:04:48.533Z,15.50
2022-10-12T10:07:33.300Z,15.10
2022-10-12T10:10:08.124Z,14.80
2022-10-12T10:12:41.637Z,14.90
2022-10-12T10:15:21.804Z,15.20
2022-10-12T10:17:54.749Z,15.40
2022-10-12T10:20:50.945Z,15.70
2022-10-12T10:23:25.874Z,15.90
2022-10-12T10:26:04.680Z,16.10
2022-10-12T10:28:34.387Z,16.50
2022-10-12T10:31:16.112Z,16.60
2022-10-12T10:33:44.028Z,16.60
2022-10-12T10:36:23.268Z,16.70
2022-10-12T10:38:55.904Z,16.40
2022-10-12T10:41:28.853Z,16.40
2022-10-12T10:43:55.671Z,17.90
2022-10-12T10:46:30.529Z,16.40
2022-10-12T10:49:06.159Z,16.20
2022-10-12T10:51:52.035Z,16.40
2022-10-12T10:54:24.583Z,16.60
2022-10-12T10:56:55.405Z,16.50
2022-10-12T10:59:54.449Z,16.70
2022-10-12T11:02:48.852Z,16.80
2022-10-12T11:05:24.984Z,16.70
2022-10-12T11:07:55.909Z,16.60
2022-10-12T11:10:48.226Z,16.70
2022-10-12T11:13:31.555Z,16.60
2022-10-12T11:16:19.295Z,16.90
2022-10-12T11:18:55.427Z,17.10
2022-10-12T11:21:30.808Z,17.30
2022-10-12T11:24:17.803Z,17.20
2022-10-12T11:26:53.453Z,17.20
2022-10-12T11:29:20.402Z,17.00
2022-10-12T11:32:08.086Z,17.90
2022-10-12T11:34:51.499Z,16.90
2022-10-12T11:37:22.506Z,17.10
2022-10-12T11:39:52.297Z,17.50
2022-10-12T11:42:33.042Z,17.60
2022-10-12T11:45:04.901Z,17.50
2022-10-12T11:47:47.372Z,17.60
2022-10-12T11:50:33.172Z,17.70
2022-10-12T11:53:02.453Z,17.90
2022-10-12T11:56:04.826Z,17.30
2022-10-12T11:58:59.827Z,17.10
2022-10-12T12:02:01.075Z,16.60
2022-10-12T12:04:42.073Z,16.40
2022-10-12T12:07:51.165Z,16.70
2022-10-12T12:10:26.599Z,17.10
2022-10-12T12:13:14.806Z,17.50
2022-10-12T12:16:03.258Z,17.70
2022-10-12T12:18:35.246Z,17.10
2022-10-12T12:21:09.148Z,16.70
2022-10-12T12:23:43.370Z,16.70
2022-10-12T12:26:15.719Z,16.90
2022-10-12T12:29:06.513Z,17.20
2022-10-12T12:31:33.519Z,17.10
2022-10-12T12:34:13.768Z,17.40
2022-10-12T12:36:44.952Z,17.40
2022-10-12T12:39:33.940Z,17.00
2022-10-12T12:42:06.498Z,17.00
2022-10-12T12:44:43.372Z,17.20
2022-10-12T12:50:02.541Z,17.50
2022-10-12T12:52:39.327Z,18.60
2022-10-12T12:55:18.131Z,17.70
2022-10-12T12:58:05.703Z,18.00
2022-10-12T13:01:08.046Z,18.10
2022-10-12T13:04:10.199Z,18.10
2022-10-12T13:07:27.306Z,17.50
2022-10-12T13:09:54.034Z,17.30
2022-10-12T13:12:58.647Z,17.20
2022-10-12T13:15:40.319Z,17.20
2022-10-12T13:18:42.267Z,17.50
2022-10-12T13:21:12.824Z,17.50
2022-10-12T13:23:40.352Z,17.20
2022-10-12T13:26:09.864Z,17.30
2022-10-12T13:28:42.527Z,17.50
2022-10-12T13:31:15.494Z,17.30
2022-10-12T13:33:50.426Z,17.40
2022-10-12T13:36:29.372Z,17.60
2022-10-12T13:38:58.412Z,17.90
2022-10-12T13:41:30.334Z,17.70
2022-10-12T13:44:01.195Z,17.70
2022-10-12T13:46:40.067Z,17.40
2022-10-12T13:49:15.279Z,17.30
2022-10-12T13:51:44.459Z,17.20
2022-10-12T13:54:17.086Z,16.90
2022-10-12T13:56:44.925Z,16.80
2022-10-12T13:59:18.790Z,18.50
2022-10-12T14:01:56.440Z,17.10
2022-10-12T14:04:27.083Z,17.20
2022-10-12T14:06:58.743Z,17.50
2022-10-12T14:09:27.347Z,17.60
2022-10-12T14:11:56.174Z,17.60
2022-10-12T14:14:34.888Z,17.60
2022-10-12T14:17:01.945Z,17.60
2022-10-12T14:19:40.654Z,17.60
2022-10-12T14:22:07.906Z,19.20
2022-10-12T14:24:36.116Z,17.60
2022-10-12T14:27:05.085Z,17.60
2022-10-12T14:29:44.393Z,17.60
2022-10-12T14:32:11.096Z,17.70
2022-10-12T14:34:46.501Z,17.70
2022-10-12T14:37:15.983Z,17.90
2022-10-12T14:39:48.672Z,18.10
2022-10-12T14:42:34.223Z,18.30
2022-10-12T14:45:02.889Z,18.00
2022-10-12T14:47:33.040Z,17.70
2022-10-12T14:50:01.382Z,17.40
2022-10-12T14:52:32.055Z,17.40
2022-10-12T14:55:00.399Z,17.40
2022-10-12T14:57:31.446Z,17.40
2022-10-12T14:59:58.982Z,17.30
2022-10-12T15:02:33.168Z,17.40
2022-10-12T15:05:00.159Z,17.10
2022-10-12T15:07:31.011Z,16.90
2022-10-12T15:09:58.262Z,17.00
2022-10-12T15:12:25.911Z,17.10
2022-10-12T15:14:55.610Z,17.30
2022-10-12T15:17:22.525Z,17.20
2022-10-12T15:19:50.575Z,17.30
2022-10-12T15:22:18.950Z,17.40
2022-10-12T15:24:46.219Z,17.30
2022-10-12T15:27:13.500Z,17.00
2022-10-12T15:29:40.521Z,17.20
2022-10-12T15:32:09.742Z,17.30
2022-10-12T15:34:36.492Z,17.40
2022-10-12T15:37:08.882Z,17.40
2022-10-12T15:39:36.268Z,17.60
2022-10-12T15:42:03.150Z,17.50
2022-10-12T15:44:30.598Z,18.20
2022-10-12T15:46:57.439Z,17.60
2022-10-12T15:49:24.449Z,17.60
2022-10-12T15:51:54.184Z,17.40
2022-10-12T15:54:21.131Z,18.60
2022-10-12T15:56:47.978Z,17.60
2022-10-12T15:59:14.846Z,17.90
2022-10-12T16:01:43.403Z,17.80
2022-10-12T16:04:15.630Z,18.00
2022-10-12T16:06:42.965Z,17.90
2022-10-12T16:09:10.201Z,17.90
2022-10-12T16:11:37.083Z,17.90
2022-10-12T16:14:04.064Z,17.90
2022-10-12T16:16:32.082Z,17.80
2022-10-12T16:18:59.242Z,17.70
2022-10-12T16:21:26.303Z,17.90
2022-10-12T16:23:53.424Z,17.80
2022-10-12T16:26:20.262Z,17.90
2022-10-12T16:28:47.130Z,17.80
2022-10-12T16:31:17.941Z,17.90
2022-10-12T16:33:45.583Z,18.00
2022-10-12T16:36:15.267Z,18.00
2022-10-12T16:38:43.046Z,17.90
2022-10-12T16:41:11.373Z,17.80
2022-10-12T16:43:38.190Z,17.80
2022-10-12T16:46:05.601Z,17.60
2022-10-12T16:48:32.769Z,17.60
2022-10-12T16:51:00.274Z,17.70
2022-10-12T16:53:27.243Z,17.60
2022-10-12T16:55:53.988Z,17.60
2022-10-12T16:58:20.755Z,17.60
2022-10-12T17:00:47.778Z,17.50
2022-10-12T17:03:14.718Z,17.40
2022-10-12T17:05:42.491Z,17.40
2022-10-12T17:08:14.751Z,17.30
2022-10-12T17:10:44.967Z,17.20
2022-10-12T17:13:13.655Z,17.20
2022-10-12T17:15:42.093Z,17.20
2022-10-12T17:18:09.482Z,17.20
2022-10-12T17:20:36.617Z,17.20
2022-10-12T17:23:03.635Z,17.10
2022-10-12T17:25:30.476Z,17.20
2022-10-12T17:27:57.256Z,17.20
2022-10-12T17:30:24.000Z,17.20
2022-10-12T17:32:50.870Z,17.20
2022-10-12T17:35:17.747Z,17.00
2022-10-12T17:37:44.456Z,17.10
2022-10-12T17:40:11.562Z,17.00
2022-10-12T17:42:38.836Z,17.00
2022-10-12T17:45:06.229Z,16.90
2022-10-12T17:47:32.971Z,17.00
2022-10-12T17:49:59.809Z,16.90
2022-10-12T17:52:26.583Z,17.00
2022-10-12T17:54:53.331Z,16.90
2022-10-12T17:57:25.927Z,16.90
2022-10-12T18:00:01.425Z,17.10
2022-10-12T18:02:28.363Z,17.00
2022-10-12T18:04:59.754Z,16.90
2022-10-12T18:07:39.903Z,17.10
2022-10-12T18:10:09.637Z,17.00
2022-10-12T18:12:37.685Z,17.00
2022-10-12T18:15:10.817Z,16.80
2022-10-12T18:20:35.630Z,16.60
2022-10-12T18:23:07.526Z,16.90
2022-10-12T18:25:46.764Z,16.80
2022-10-12T18:28:16.488Z,16.80
2022-10-12T18:30:49.977Z,16.70
2022-10-12T18:33:17.668Z,16.70
2022-10-12T18:35:51.584Z,16.70
2022-10-12T18:38:26.036Z,16.60
2022-10-12T18:40:53.560Z,16.70
2022-10-12T18:43:20.303Z,16.70
2022-10-12T18:45:47.035Z,16.70
2022-10-12T18:48:14.036Z,16.60
2022-10-12T18:50:40.795Z,16.60
2022-10-12T18:53:08.176Z,16.70
2022-10-12T18:55:38.312Z,16.70
2022-10-12T18:58:05.482Z,16.80
2022-10-12T19:00:32.605Z,16.90
2022-10-12T19:02:59.588Z,16.90
2022-10-12T19:05:26.830Z,16.80
2022-10-12T19:07:53.600Z,16.80
2022-10-12T19:10:20.445Z,16.60
2022-10-12T19:12:47.230Z,16.30
2022-10-12T19:15:13.986Z,16.30
2022-10-12T19:17:41.605Z,16.30
2022-10-12T19:20:09.005Z,16.00
2022-10-12T19:22:36.071Z,16.00
2022-10-12T19:25:03.653Z,16.00
2022-10-12T19:27:30.419Z,16.10
2022-10-12T19:29:57.683Z,17.90
2022-10-12T19:32:24.438Z,16.10
2022-10-12T19:34:52.146Z,16.10
2022-10-12T19:37:18.917Z,16.00
2022-10-12T19:39:47.166Z,16.10
2022-10-12T19:42:14.098Z,16.10
2022-10-12T19:44:40.953Z,15.80
2022-10-12T19:47:08.043Z,16.30
2022-10-12T19:49:37.331Z,16.00
2022-10-12T19:52:05.415Z,16.30
2022-10-12T19:54:36.043Z,16.40
2022-10-12T19:57:03.084Z,16.30
2022-10-12T19:59:29.891Z,16.30
2022-10-12T20:01:56.668Z,16.50
2022-10-12T20:04:25.614Z,16.50
2022-10-12T20:06:52.556Z,16.40
2022-10-12T20:09:20.129Z,16.20
2022-10-12T20:11:47.033Z,16.20
2022-10-12T20:14:13.875Z,16.20
2022-10-12T20:16:41.366Z,16.00
2022-10-12T20:19:08.203Z,15.80
2022-10-12T20:21:36.646Z,15.80
2022-10-12T20:24:04.092Z,15.60
2022-10-12T20:26:30.916Z,15.50
2022-10-12T20:28:58.209Z,15.70
2022-10-12T20:31:27.596Z,15.60
2022-10-12T20:33:56.000Z,15.70
2022-10-12T20:36:28.459Z,15.90
2022-10-12T20:38:56.519Z,15.90
2022-10-12T20:41:24.545Z,16.00
2022-10-12T20:43:58.811Z,16.00
2022-10-12T20:46:26.807Z,16.00
2022-10-12T20:48:58.636Z,15.60
2022-10-12T20:51:31.629Z,15.60
2022-10-12T20:54:00.585Z,15.40
2022-10-12T20:56:31.849Z,15.50
2022-10-12T20:58:59.511Z,15.30
2022-10-12T21:01:52.120Z,15.40
2022-10-12T21:04:18.940Z,15.50
2022-10-12T21:06:45.635Z,15.40
2022-10-12T21:09:14.575Z,15.40
2022-10-12T21:11:43.631Z,15.30
2022-10-12T21:14:14.266Z,15.40
2022-10-12T21:16:41.278Z,15.40
2022-10-12T21:19:08.407Z,15.40
2022-10-12T21:21:35.275Z,15.40
2022-10-12T21:24:02.116Z,15.30
2022-10-12T21:26:30.757Z,15.50
2022-10-12T21:28:59.780Z,15.40
2022-10-12T21:31:32.024Z,15.30
2022-10-12T21:34:04.714Z,15.50
2022-10-12T21:36:32.606Z,15.40
2022-10-12T21:38:59.373Z,15.40
2022-10-12T21:41:28.684Z,15.50
2022-10-12T21:43:56.317Z,15.50
2022-10-12T21:46:28.413Z,15.70
2022-10-12T21:48:55.578Z,15.70
2022-10-12T21:51:24.022Z,15.60
2022-10-12T21:53:51.505Z,15.70
2022-10-12T21:56:22.881Z,15.70
2022-10-12T21:58:50.607Z,15.70
2022-10-12T22:01:27.030Z,16.00
2022-10-12T22:03:55.302Z,16.10
2022-10-12T22:06:24.005Z,16.10
2022-10-12T22:09:14.878Z,16.00
2022-10-12T22:11:42.111Z,16.10
2022-10-12T22:14:12.186Z,16.00
2022-10-12T22:16:39.618Z,16.00
2022-10-12T22:19:08.507Z,15.80
2022-10-12T22:21:36.497Z,15.70
2022-10-12T22:24:03.829Z,15.80
2022-10-12T22:26:30.866Z,16.00
2022-10-12T22:28:59.287Z,16.10
2022-10-12T22:31:26.495Z,16.10
2022-10-12T22:33:54.742Z,16.10
2022-10-12T22:36:21.466Z,16.10
2022-10-12T22:38:48.237Z,16.10
2022-10-12T22:41:17.542Z,16.20
2022-10-12T22:43:44.483Z,16.30
2022-10-12T22:46:11.320Z,16.20
2022-10-12T22:48:38.161Z,15.70
2022-10-12T22:51:06.580Z,15.60
2022-10-12T22:53:33.801Z,15.70
2022-10-12T22:56:03.520Z,15.60
2022-10-12T22:58:30.774Z,15.70
2022-10-12T23:01:06.593Z,15.90
2022-10-12T23:03:34.192Z,15.80
2022-10-12T23:06:00.995Z,15.90
2022-10-12T23:08:28.382Z,16.00
2022-10-12T23:10:55.562Z,16.00
2022-10-12T23:13:22.444Z,16.00
2022-10-12T23:15:49.187Z,16.20
2022-10-12T23:18:15.927Z,16.30
2022-10-12T23:20:42.777Z,17.30
2022-10-12T23:23:09.543Z,16.40
2022-10-12T23:25:36.763Z,17.10
2022-10-12T23:28:03.633Z,16.30
2022-10-12T23:30:30.461Z,16.20
2022-10-12T23:32:57.736Z,16.20
2022-10-12T23:35:24.522Z,16.20
2022-10-12T23:37:51.249Z,16.10
2022-10-12T23:40:18.770Z,16.10
2022-10-12T23:42:45.654Z,16.00
2022-10-12T23:45:12.463Z,16.00
2022-10-12T23:47:39.304Z,16.00
2022-10-12T23:50:06.523Z,16.00
2022-10-12T23:52:33.289Z,15.90
2022-10-12T23:54:59.987Z,15.90
2022-10-12T23:57:45.567Z,15.70
